Airfield :
LOGIN :

Register | Disclaimer

   EN    FR    IT 

 










Legend :    VFR   Marginal VFR   IFR   Intensive IFR   Very Intensive IFR
Visi :
Ceiling :
>= 8 km
>= 3000ft
5 to 8 km
1000 to 3000 ft
1500m to 5 km
500 to 1000 ft
800 to 1500m
200 to 500 ft
< 800m
< 200 ft
Symbols :   Thunderstorms  Fog  Heavy snow  Heavy precipitations  Wind > 20 kt
SIGMETs :     Misc.  Thunderstorms  Icing  Turbulence  Mountain Waves  Volcanic Ashes







- Airport Elevation : 194 ft


EBCV - Chièvres

CURRENT METAR :
  • 202055Z AUTO 12006KT //// OVC022/// 03/01 Q1006 WHT

EXPIRED METARs :
  • 202025Z AUTO 12007KT //// OVC020/// 03/00 Q1006 WHT
  • 202013Z AUTO 11006KT //// OVC024/// 03/00 Q1006 WHT
  • 201955Z AUTO 10006KT //// OVC029/// 03/M00 Q1005 BLU
  • 201925Z AUTO 08005KT //// OVC032/// 03/M01 Q1005 BLU
  • 201855Z AUTO 09005KT //// OVC043/// 03/M01 Q1005 BLU
  • 201825Z AUTO 08005KT //// OVC046/// 03/M01 Q1005 BLU

TAF TAF EBCV
Valid from the 20 at 19:00 until the 21 at 07:00 UTC


201551Z 2019/2107 09008KT 9999 BKN030
TEMPO 2019/2022 6000 -RA -RASN SCT015 BKN020
BECMG 2020/2022 16006KT BKN015
PROB30
TEMPO 2104/2107 4000 BR SCT012 BY EBWM
No reported NOTAMs for that airfield.



MET'MAP, your aeronautical weather chart ! - Copyright ORBIFLY December 2007 - Disclaimer

ORBIFLY MET'MAP TEAM :

Programming & Development : Alexandra Zaïnal
Concept & Development : Baudouin d'Aumeries
Co-Development & Prog : Marc-Olivier Méhu
Technical & hardware support : Manuel Goepfert

Contact : metmap@orbifly.com




SOURCES & CREDITS :

   NOAA